Time;durP1;ratioP1;P1;durP2;ratioP2;P2;SDS_P1;SDS_P2;PMS_P1;PMS_P2;Temp;Humidity;BMP_temperature;BMP_pressure;BME280_temperature;BME280_humidity;BME280_pressure;Samples;Min_cycle;Max_cycle;Signal;HPM_P1;HPM_P2
2023/04/26 00:02:22;;;;;;;1.70;1.60;;;6.80;99.90;;;;;;5091291;28;20399;-83
2023/04/26 00:04:54;;;;;;;2.20;2.00;;;6.80;99.90;;;;;;5075036;28;20793;-82
2023/04/26 00:07:23;;;;;;;4.00;2.00;;;6.70;99.90;;;;;;5093153;28;20403;-83
2023/04/26 00:09:51;;;;;;;2.40;2.20;;;6.60;99.90;;;;;;5108015;28;20382;-83
2023/04/26 00:12:17;;;;;;;2.63;2.43;;;6.60;99.90;;;;;;5095252;28;20436;-82
2023/04/26 00:14:42;;;;;;;3.70;2.30;;;6.50;99.90;;;;;;5111892;28;20405;-83
2023/04/26 00:17:08;;;;;;;2.00;1.80;;;6.60;99.90;;;;;;5093604;28;20821;-83
2023/04/26 00:19:33;;;;;;;3.40;2.30;;;6.50;99.90;;;;;;5111511;28;20397;-83
2023/04/26 00:21:59;;;;;;;2.50;2.00;;;6.40;99.90;;;;;;5092868;28;20397;-82
2023/04/26 00:24:24;;;;;;;2.60;2.40;;;6.40;99.90;;;;;;5112648;28;20393;-83
2023/04/26 00:26:53;;;;;;;2.03;1.90;;;6.40;99.90;;;;;;5092717;28;20397;-83
2023/04/26 00:29:19;;;;;;;2.20;2.00;;;6.30;99.90;;;;;;5092529;28;20382;-83
2023/04/26 00:31:44;;;;;;;2.50;2.30;;;6.30;99.90;;;;;;5108081;28;20389;-82
2023/04/26 00:34:10;;;;;;;2.72;2.47;;;6.20;99.90;;;;;;5096932;28;20816;-84
2023/04/26 00:36:35;;;;;;;2.20;2.00;;;6.30;99.90;;;;;;5078725;28;20457;-84
2023/04/26 00:39:01;;;;;;;2.60;2.40;;;6.30;99.90;;;;;;5077787;28;20374;-83
2023/04/26 00:41:27;;;;;;;3.73;2.13;;;6.40;99.90;;;;;;5095665;28;20382;-84
2023/04/26 00:43:52;;;;;;;2.23;1.97;;;6.40;99.90;;;;;;5095446;28;20431;-84
2023/04/26 00:46:18;;;;;;;2.10;1.83;;;6.50;99.90;;;;;;5094928;28;20899;-84
2023/04/26 00:48:44;;;;;;;2.00;1.70;;;6.50;99.90;;;;;;5076149;28;20382;-83
2023/04/26 00:51:10;;;;;;;2.03;1.83;;;6.50;99.90;;;;;;5095551;28;20374;-83
2023/04/26 00:53:36;;;;;;;3.10;2.60;;;6.50;99.90;;;;;;5095521;28;20756;-84
2023/04/26 00:56:02;;;;;;;2.25;2.05;;;6.50;99.90;;;;;;5096486;28;20379;-83
2023/04/26 00:58:28;;;;;;;2.30;2.10;;;6.50;99.90;;;;;;5066725;28;20388;-84
2023/04/26 01:00:54;;;;;;;2.17;1.98;;;6.40;99.90;;;;;;5059680;28;20870;-83
2023/04/26 01:03:20;;;;;;;2.70;2.30;;;6.40;99.90;;;;;;5096863;28;20750;-83
2023/04/26 01:05:46;;;;;;;1.87;1.77;;;6.50;99.90;;;;;;5097282;28;20395;-83
2023/04/26 01:08:15;;;;;;;2.33;2.13;;;6.40;99.90;;;;;;5096993;28;20407;-83
2023/04/26 01:10:42;;;;;;;3.00;1.77;;;6.40;99.90;;;;;;5086322;28;20748;-84
2023/04/26 01:13:07;;;;;;;2.65;2.45;;;6.30;99.90;;;;;;5094621;28;20432;-84
2023/04/26 01:15:34;;;;;;;2.47;2.10;;;6.30;99.90;;;;;;5094962;28;20856;-85
2023/04/26 01:18:00;;;;;;;2.40;2.17;;;6.20;99.90;;;;;;5095234;28;20389;-83
2023/04/26 01:20:26;;;;;;;2.72;2.53;;;6.30;99.90;;;;;;5077079;28;20383;-83
2023/04/26 01:22:51;;;;;;;2.50;2.30;;;6.30;99.90;;;;;;5094776;28;20382;-83
2023/04/26 01:25:18;;;;;;;2.42;2.10;;;6.30;99.90;;;;;;5082956;28;20401;-84
2023/04/26 01:27:43;;;;;;;2.38;2.17;;;6.20;99.90;;;;;;5085179;28;20398;-84
2023/04/26 01:30:09;;;;;;;3.07;2.47;;;6.20;99.90;;;;;;5079462;28;20378;-83
2023/04/26 01:32:35;;;;;;;2.20;2.00;;;6.30;99.90;;;;;;5094689;28;20854;-84
2023/04/26 01:35:01;;;;;;;2.60;2.00;;;6.30;99.90;;;;;;5094898;28;20461;-83
2023/04/26 01:37:26;;;;;;;3.47;2.08;;;6.30;99.90;;;;;;5076002;28;20382;-82
2023/04/26 01:39:52;;;;;;;2.78;2.20;;;6.30;99.90;;;;;;5076681;28;20954;-84
2023/04/26 01:42:17;;;;;;;2.50;2.30;;;6.20;99.90;;;;;;5075843;28;20443;-83
2023/04/26 01:44:43;;;;;;;2.40;2.20;;;6.30;99.90;;;;;;5077149;28;20413;-83
2023/04/26 01:47:09;;;;;;;2.40;2.20;;;6.30;99.90;;;;;;5088466;28;20413;-84
2023/04/26 01:49:34;;;;;;;2.60;2.10;;;6.30;99.90;;;;;;5096089;28;20485;-83
2023/04/26 01:52:00;;;;;;;2.63;2.10;;;6.30;99.90;;;;;;5113356;28;20366;-83
2023/04/26 01:54:26;;;;;;;2.60;2.00;;;6.30;99.90;;;;;;5095712;28;20370;-83
2023/04/26 01:56:51;;;;;;;2.40;2.20;;;6.20;99.90;;;;;;5113719;28;20388;-83
2023/04/26 01:59:17;;;;;;;3.90;2.40;;;6.20;99.90;;;;;;5093679;28;20457;-84
2023/04/26 02:01:42;;;;;;;2.33;2.13;;;6.20;99.90;;;;;;5107614;28;20378;-85
2023/04/26 02:04:08;;;;;;;2.50;2.30;;;6.20;99.90;;;;;;5090223;28;20393;-84
2023/04/26 02:06:34;;;;;;;2.83;2.55;;;6.20;99.90;;;;;;5088170;28;20408;-83
2023/04/26 02:09:00;;;;;;;2.77;2.57;;;6.20;99.90;;;;;;5088707;28;20482;-85
2023/04/26 02:11:25;;;;;;;2.42;2.22;;;6.20;99.90;;;;;;5087605;28;20374;-83
2023/04/26 02:13:52;;;;;;;2.80;2.60;;;6.30;99.90;;;;;;5105530;28;20807;-84
2023/04/26 02:16:17;;;;;;;2.35;2.15;;;6.30;99.90;;;;;;5105028;28;20443;-83
2023/04/26 02:18:43;;;;;;;2.80;2.60;;;6.20;99.90;;;;;;5087415;28;20493;-84
2023/04/26 02:21:10;;;;;;;2.47;2.27;;;6.30;99.90;;;;;;5105308;28;20842;-84
2023/04/26 02:23:36;;;;;;;2.60;2.40;;;6.20;99.90;;;;;;5086618;28;20776;-84
2023/04/26 02:26:03;;;;;;;2.70;2.50;;;6.20;99.90;;;;;;5104467;28;20453;-83
2023/04/26 02:28:29;;;;;;;2.42;2.22;;;6.20;99.90;;;;;;5104136;28;20494;-82
2023/04/26 02:30:55;;;;;;;3.80;2.60;;;6.10;99.90;;;;;;5104715;28;20374;-83
2023/04/26 02:33:21;;;;;;;3.95;2.67;;;6.20;99.90;;;;;;5087510;28;20378;-83
2023/04/26 02:35:47;;;;;;;2.97;2.67;;;6.30;99.90;;;;;;5087161;28;20393;-84
2023/04/26 02:38:12;;;;;;;3.40;3.10;;;6.20;99.90;;;;;;5086109;28;20378;-83
2023/04/26 02:40:38;;;;;;;2.60;2.40;;;6.20;99.90;;;;;;5097350;28;20402;-81
2023/04/26 02:43:04;;;;;;;3.03;2.80;;;6.30;99.90;;;;;;5117061;28;20454;-81
2023/04/26 02:45:30;;;;;;;3.47;2.95;;;6.20;99.90;;;;;;5111103;28;20385;-84
2023/04/26 02:47:55;;;;;;;2.73;2.53;;;6.10;99.90;;;;;;5105314;28;20405;-85
2023/04/26 02:50:21;;;;;;;2.50;2.30;;;6.20;99.90;;;;;;5106286;28;20378;-84
2023/04/26 02:52:46;;;;;;;2.70;2.50;;;6.20;99.90;;;;;;5110312;28;20396;-82
2023/04/26 02:55:13;;;;;;;3.70;2.60;;;6.20;99.90;;;;;;5095941;28;20397;-83
2023/04/26 02:57:38;;;;;;;3.43;2.70;;;6.20;99.90;;;;;;5090308;28;20395;-83
2023/04/26 03:00:04;;;;;;;2.83;2.63;;;6.20;99.90;;;;;;5086577;28;20387;-84
2023/04/26 03:02:30;;;;;;;2.50;2.30;;;6.10;99.90;;;;;;5084512;28;20384;-84
2023/04/26 03:04:55;;;;;;;3.20;3.00;;;6.10;99.90;;;;;;5083735;28;20383;-84
2023/04/26 03:07:21;;;;;;;3.20;2.90;;;6.00;99.90;;;;;;5110901;22;20429;-86
2023/04/26 03:09:47;;;;;;;2.70;2.50;;;6.10;99.90;;;;;;5097286;28;20378;-83
2023/04/26 03:12:12;;;;;;;3.40;3.10;;;6.10;99.90;;;;;;5098174;28;20370;-83
2023/04/26 03:14:38;;;;;;;2.80;2.60;;;6.00;99.90;;;;;;5112223;28;20408;-83
2023/04/26 03:17:03;;;;;;;3.57;2.70;;;6.10;99.90;;;;;;5102731;28;20372;-86
2023/04/26 03:19:29;;;;;;;3.30;2.90;;;5.90;99.90;;;;;;5070742;28;20475;-86
2023/04/26 03:21:55;;;;;;;3.20;2.90;;;5.80;99.90;;;;;;5067724;28;20384;-86
2023/04/26 03:24:20;;;;;;;2.80;2.60;;;5.80;99.90;;;;;;5061214;28;20441;-86
2023/04/26 03:26:46;;;;;;;4.03;2.80;;;5.80;99.90;;;;;;5076832;28;20762;-85
2023/04/26 03:29:11;;;;;;;3.17;2.88;;;5.70;99.90;;;;;;5076319;28;20780;-85
2023/04/26 03:31:37;;;;;;;2.87;2.67;;;5.70;99.90;;;;;;5059376;28;20384;-85
2023/04/26 03:34:03;;;;;;;2.80;2.60;;;5.70;99.90;;;;;;5076741;28;20459;-86
2023/04/26 03:36:28;;;;;;;2.75;2.55;;;5.60;99.90;;;;;;5075276;28;20375;-85
2023/04/26 03:38:55;;;;;;;3.22;2.92;;;5.70;99.90;;;;;;5076093;28;20467;-85
2023/04/26 03:41:21;;;;;;;3.30;3.00;;;5.60;99.90;;;;;;5060355;28;20973;-86
2023/04/26 03:43:47;;;;;;;3.22;2.92;;;5.60;99.90;;;;;;5058609;28;20416;-85
2023/04/26 03:46:12;;;;;;;3.20;2.90;;;5.50;99.90;;;;;;5059586;28;20392;-85
2023/04/26 03:48:38;;;;;;;3.63;3.10;;;5.50;99.90;;;;;;5062911;28;20400;-86
2023/04/26 03:51:05;;;;;;;3.22;3.03;;;5.40;99.90;;;;;;5061488;28;20406;-86
2023/04/26 03:53:30;;;;;;;3.30;3.00;;;5.40;99.90;;;;;;5064463;28;20517;-85
2023/04/26 03:55:56;;;;;;;3.50;3.20;;;5.40;99.90;;;;;;5059345;28;20422;-85
2023/04/26 03:58:23;;;;;;;3.40;3.00;;;5.30;99.90;;;;;;5074861;28;20757;-86
2023/04/26 04:00:48;;;;;;;3.70;2.90;;;5.30;99.90;;;;;;5058126;28;20429;-85
2023/04/26 04:03:14;;;;;;;3.30;3.00;;;5.30;99.90;;;;;;5067692;28;20383;-85
2023/04/26 04:05:40;;;;;;;3.55;2.80;;;5.30;99.90;;;;;;5050807;28;20386;-86
2023/04/26 04:08:05;;;;;;;3.05;2.75;;;5.20;99.90;;;;;;5073737;28;20898;-86
2023/04/26 04:10:31;;;;;;;3.40;3.10;;;5.20;99.90;;;;;;5071368;28;20393;-85
2023/04/26 04:12:57;;;;;;;3.13;2.83;;;5.30;99.90;;;;;;5047687;28;20445;-86
2023/04/26 04:15:22;;;;;;;3.30;3.00;;;5.20;99.90;;;;;;5047554;28;20383;-86
2023/04/26 04:17:48;;;;;;;3.73;3.07;;;5.20;99.90;;;;;;5048909;28;20400;-85
2023/04/26 04:20:13;;;;;;;3.40;3.10;;;5.20;99.90;;;;;;5074322;28;20817;-86
2023/04/26 04:22:39;;;;;;;8.27;3.70;;;5.20;99.90;;;;;;5075639;28;20385;-85
2023/04/26 04:25:06;;;;;;;4.10;3.70;;;5.10;99.90;;;;;;5080259;28;20396;-86
2023/04/26 04:27:32;;;;;;;4.00;3.70;;;5.10;99.90;;;;;;5079178;28;20404;-85
2023/04/26 04:29:57;;;;;;;4.95;3.80;;;5.00;99.90;;;;;;5062760;28;20838;-85
2023/04/26 04:32:23;;;;;;;4.38;3.25;;;5.00;99.90;;;;;;5041803;28;20431;-86
2023/04/26 04:34:50;;;;;;;3.92;3.30;;;5.00;99.90;;;;;;5041241;28;20431;-85
2023/04/26 04:37:17;;;;;;;3.80;3.50;;;5.10;99.90;;;;;;5041171;28;20424;-85
2023/04/26 04:39:42;;;;;;;4.30;3.50;;;5.00;99.90;;;;;;5060209;28;20470;-85
2023/04/26 04:42:09;;;;;;;3.47;3.17;;;5.10;99.90;;;;;;5060605;28;20385;-86
2023/04/26 04:44:35;;;;;;;4.40;4.00;;;5.10;99.90;;;;;;5041304;28;20433;-86
2023/04/26 04:47:01;;;;;;;3.70;3.40;;;5.10;99.90;;;;;;5048548;28;20413;-85
2023/04/26 04:49:27;;;;;;;4.65;3.63;;;5.10;99.90;;;;;;5065838;28;20436;-85
2023/04/26 04:51:53;;;;;;;3.80;3.50;;;5.00;99.90;;;;;;5047293;28;20407;-85
2023/04/26 04:54:18;;;;;;;4.15;3.75;;;5.00;99.90;;;;;;5052110;28;20380;-85
2023/04/26 04:56:44;;;;;;;3.97;3.65;;;5.00;99.90;;;;;;5050318;28;20392;-85
2023/04/26 04:59:10;;;;;;;3.97;3.67;;;5.00;99.90;;;;;;5070719;28;20421;-85
2023/04/26 05:01:37;;;;;;;3.73;3.20;;;5.10;99.90;;;;;;5068263;28;20472;-85
2023/04/26 05:04:03;;;;;;;3.33;3.03;;;5.00;99.90;;;;;;5080864;28;20401;-85
2023/04/26 05:06:31;;;;;;;3.65;3.35;;;5.00;99.90;;;;;;5067752;28;20405;-86
2023/04/26 05:08:56;;;;;;;3.63;3.33;;;5.00;99.90;;;;;;5058827;28;20390;-84
2023/04/26 05:11:22;;;;;;;4.40;3.90;;;5.10;99.90;;;;;;5070732;28;20382;-85
2023/04/26 05:13:48;;;;;;;3.70;3.40;;;5.10;99.90;;;;;;5048535;28;20397;-85
2023/04/26 05:16:14;;;;;;;4.13;3.83;;;5.10;99.90;;;;;;5055287;28;20392;-85
2023/04/26 05:18:40;;;;;;;3.88;3.50;;;5.00;99.90;;;;;;5074174;28;20439;-85
2023/04/26 05:21:06;;;;;;;4.60;4.20;;;5.00;99.90;;;;;;5076074;28;20449;-86
2023/04/26 05:23:33;;;;;;;8.13;6.40;;;5.00;99.90;;;;;;5064938;28;20401;-85
2023/04/26 05:26:04;;;;;;;3.70;3.40;;;5.10;99.90;;;;;;5088284;28;20392;-87
2023/04/26 05:28:30;;;;;;;2.90;2.70;;;5.20;99.90;;;;;;5085678;28;20467;-84
2023/04/26 05:30:56;;;;;;;3.80;3.20;;;5.30;99.90;;;;;;5071245;28;20387;-85
2023/04/26 05:33:21;;;;;;;4.18;3.78;;;5.30;99.90;;;;;;5081407;28;20399;-84
2023/04/26 05:35:47;;;;;;;4.63;4.03;;;5.40;99.90;;;;;;5084301;28;20400;-85
2023/04/26 05:38:13;;;;;;;4.30;3.90;;;5.40;99.90;;;;;;5093780;28;20391;-84
2023/04/26 05:40:39;;;;;;;3.43;3.13;;;5.40;99.90;;;;;;5083030;28;20411;-85
2023/04/26 05:43:05;;;;;;;4.73;3.87;;;5.50;99.90;;;;;;5085335;28;20401;-84
2023/04/26 05:45:30;;;;;;;4.40;4.00;;;5.60;99.90;;;;;;5083619;28;20368;-84
2023/04/26 05:47:56;;;;;;;3.90;3.30;;;5.70;99.90;;;;;;5080966;28;20454;-84
2023/04/26 05:50:21;;;;;;;4.50;4.10;;;5.70;99.90;;;;;;5072394;28;20442;-85
2023/04/26 05:52:47;;;;;;;4.10;3.80;;;6.00;99.90;;;;;;5043493;28;20423;-85
2023/04/26 05:55:12;;;;;;;4.10;3.80;;;6.20;99.90;;;;;;5057150;28;20379;-85
2023/04/26 05:57:38;;;;;;;5.00;3.80;;;6.20;99.90;;;;;;5080802;28;20369;-85
2023/04/26 06:00:05;;;;;;;4.53;4.13;;;6.20;99.90;;;;;;5069428;28;20388;-85
2023/04/26 06:02:30;;;;;;;3.90;3.60;;;6.50;99.90;;;;;;5048766;28;20389;-85
2023/04/26 06:04:56;;;;;;;4.37;3.97;;;6.60;99.90;;;;;;5062502;28;20391;-85
2023/04/26 06:07:22;;;;;;;4.10;3.73;;;7.00;99.90;;;;;;5050957;28;20405;-83
2023/04/26 06:09:47;;;;;;;4.63;4.23;;;6.90;99.90;;;;;;5065293;28;20412;-83
2023/04/26 06:12:13;;;;;;;4.15;3.75;;;6.90;99.90;;;;;;5063792;28;20740;-85
2023/04/26 06:14:38;;;;;;;3.83;3.50;;;7.10;99.90;;;;;;5048685;28;20796;-85
2023/04/26 06:17:04;;;;;;;4.03;3.70;;;7.00;99.90;;;;;;5045173;28;20435;-85
2023/04/26 06:19:30;;;;;;;4.07;3.67;;;7.20;99.90;;;;;;5051547;28;20446;-85
2023/04/26 06:21:56;;;;;;;5.97;4.23;;;7.10;99.90;;;;;;5040146;28;20389;-84
2023/04/26 06:24:23;;;;;;;5.10;4.50;;;7.00;99.90;;;;;;5041182;28;20388;-85
2023/04/26 06:26:48;;;;;;;6.22;5.63;;;7.10;99.90;;;;;;5068826;28;20415;-84
2023/04/26 06:29:14;;;;;;;6.15;5.55;;;7.30;99.90;;;;;;5059735;28;20467;-85
2023/04/26 06:31:39;;;;;;;6.95;6.25;;;7.20;99.90;;;;;;5066473;28;20460;-84
2023/04/26 06:34:05;;;;;;;6.50;5.90;;;7.20;99.90;;;;;;5059053;28;20388;-84
2023/04/26 06:36:31;;;;;;;7.13;6.17;;;7.20;99.90;;;;;;5057816;28;20384;-85
2023/04/26 06:38:57;;;;;;;6.70;6.10;;;7.20;99.90;;;;;;5058037;28;20467;-85
2023/04/26 06:41:22;;;;;;;6.77;6.07;;;7.20;99.90;;;;;;5058361;28;20415;-85
2023/04/26 06:43:48;;;;;;;6.13;5.57;;;7.30;99.90;;;;;;5055759;28;20387;-83
2023/04/26 06:46:14;;;;;;;7.50;6.70;;;7.40;99.90;;;;;;5075262;28;20387;-85
2023/04/26 06:48:39;;;;;;;6.83;6.23;;;7.40;99.90;;;;;;5075223;28;20817;-84
2023/04/26 06:51:08;;;;;;;6.72;6.13;;;7.60;99.90;;;;;;5075961;28;20447;-84
2023/04/26 06:53:37;;;;;;;7.20;6.15;;;7.70;99.90;;;;;;5057615;28;20397;-84
2023/04/26 06:56:02;;;;;;;6.40;5.80;;;7.80;99.90;;;;;;5057665;28;20388;-84
2023/04/26 06:58:28;;;;;;;6.20;5.60;;;7.70;99.90;;;;;;5047166;28;20397;-85
2023/04/26 07:00:54;;;;;;;6.47;5.87;;;7.70;99.90;;;;;;5056172;28;20385;-85
2023/04/26 07:03:19;;;;;;;6.40;5.80;;;7.90;99.90;;;;;;5038262;28;20388;-84
2023/04/26 07:05:45;;;;;;;6.30;5.70;;;8.00;99.90;;;;;;5037920;28;20962;-85
2023/04/26 07:08:10;;;;;;;7.63;5.83;;;8.20;99.90;;;;;;5038606;28;20409;-84
2023/04/26 07:10:38;;;;;;;5.60;5.10;;;8.30;99.90;;;;;;5037281;28;20404;-84
2023/04/26 07:13:03;;;;;;;6.47;5.88;;;8.10;99.90;;;;;;5055478;28;20389;-84
2023/04/26 07:15:30;;;;;;;6.07;5.43;;;8.10;99.90;;;;;;5057112;28;20389;-85
2023/04/26 07:17:55;;;;;;;5.78;5.28;;;8.40;99.90;;;;;;5041622;28;20456;-85
2023/04/26 07:20:21;;;;;;;5.57;5.07;;;8.40;99.90;;;;;;5058013;28;20476;-85
2023/04/26 07:22:47;;;;;;;6.30;5.57;;;8.40;99.90;;;;;;5056567;28;20393;-86
2023/04/26 07:25:13;;;;;;;6.10;5.50;;;8.40;99.90;;;;;;5057143;28;20392;-85
2023/04/26 07:27:38;;;;;;;6.10;5.50;;;8.50;99.90;;;;;;5037557;28;20929;-84
2023/04/26 07:30:04;;;;;;;6.07;5.57;;;8.30;99.90;;;;;;5037650;28;20377;-84
2023/04/26 07:32:30;;;;;;;5.97;5.47;;;8.30;99.90;;;;;;5055207;28;20455;-85
2023/04/26 07:34:56;;;;;;;5.68;5.18;;;8.30;99.90;;;;;;5056610;28;20378;-86
2023/04/26 07:37:21;;;;;;;6.80;6.10;;;8.20;99.90;;;;;;5043614;28;20397;-86
2023/04/26 07:39:47;;;;;;;4.80;4.40;;;8.30;99.90;;;;;;5056480;28;20876;-84
2023/04/26 07:42:13;;;;;;;5.00;4.60;;;8.30;99.90;;;;;;5064507;28;20405;-86
2023/04/26 07:44:38;;;;;;;5.40;4.90;;;8.40;99.90;;;;;;5054701;28;20390;-85
2023/04/26 07:47:04;;;;;;;5.70;5.27;;;8.30;99.90;;;;;;5040913;28;20404;-86
2023/04/26 07:49:29;;;;;;;5.20;4.70;;;8.40;99.90;;;;;;5039652;28;20397;-85
2023/04/26 07:51:57;;;;;;;5.82;4.75;;;8.60;99.90;;;;;;5058140;28;20393;-85
2023/04/26 07:54:22;;;;;;;6.95;5.97;;;8.60;99.90;;;;;;5038786;28;20382;-86
2023/04/26 07:56:48;;;;;;;7.00;6.17;;;8.60;99.90;;;;;;5056060;28;20385;-86
2023/04/26 07:59:13;;;;;;;6.80;6.10;;;8.60;99.90;;;;;;5059216;28;20408;-85
2023/04/26 08:01:39;;;;;;;7.15;5.82;;;8.70;99.90;;;;;;5060083;28;20902;-84
2023/04/26 08:04:05;;;;;;;7.43;6.13;;;8.70;99.90;;;;;;5060691;28;20389;-84
2023/04/26 08:06:30;;;;;;;6.38;5.82;;;8.30;99.90;;;;;;5074249;28;20386;-87
2023/04/26 08:08:56;;;;;;;8.33;6.73;;;8.50;99.90;;;;;;5063335;28;20439;-89
2023/04/26 08:11:21;;;;;;;7.17;6.40;;;8.80;99.90;;;;;;5079645;28;20381;-88
2023/04/26 08:13:47;;;;;;;6.95;6.25;;;8.80;99.90;;;;;;5070692;28;20425;-86
2023/04/26 08:16:13;;;;;;;6.25;5.65;;;9.00;99.90;;;;;;5043948;28;20461;-84
2023/04/26 08:18:39;;;;;;;6.40;5.80;;;8.80;99.90;;;;;;5043967;28;20392;-85
2023/04/26 08:21:05;;;;;;;7.30;6.00;;;8.90;99.90;;;;;;5042945;28;20389;-86
2023/04/26 08:23:35;;;;;;;6.60;6.00;;;9.10;99.90;;;;;;5042898;28;20437;-86
2023/04/26 08:26:01;;;;;;;7.20;6.50;;;9.00;99.90;;;;;;5060016;28;20389;-87
2023/04/26 08:28:26;;;;;;;6.90;6.30;;;9.20;99.90;;;;;;5043094;28;20401;-84
2023/04/26 08:30:52;;;;;;;7.00;6.40;;;9.30;99.90;;;;;;5059042;28;20390;-86
2023/04/26 08:33:18;;;;;;;7.20;6.50;;;9.00;99.90;;;;;;5058672;28;20381;-85
2023/04/26 08:35:43;;;;;;;6.80;6.20;;;9.10;99.90;;;;;;5057823;28;20904;-86
2023/04/26 08:38:09;;;;;;;7.13;6.43;;;9.40;99.90;;;;;;5039429;28;20409;-85
2023/04/26 08:40:35;;;;;;;6.93;5.20;;;9.60;99.90;;;;;;5058299;28;20389;-84
2023/04/26 08:43:01;;;;;;;6.50;5.90;;;9.40;99.90;;;;;;5040101;28;20483;-85
2023/04/26 08:45:26;;;;;;;6.90;6.10;;;9.60;99.90;;;;;;5058143;28;20425;-85
2023/04/26 08:47:55;;;;;;;5.40;4.90;;;9.50;99.90;;;;;;5058582;28;20413;-84
2023/04/26 08:50:22;;;;;;;6.40;5.43;;;9.60;99.90;;;;;;5040185;28;20411;-84
2023/04/26 08:52:51;;;;;;;5.50;5.00;;;10.20;99.90;;;;;;5041050;28;20456;-86
2023/04/26 08:55:18;;;;;;;6.50;4.90;;;9.80;99.90;;;;;;5040659;28;20473;-85
2023/04/26 08:57:48;;;;;;;5.80;5.20;;;9.90;99.90;;;;;;5062285;28;20392;-85
2023/04/26 09:00:15;;;;;;;5.82;5.13;;;10.10;99.90;;;;;;5059383;28;20391;-84
2023/04/26 09:02:51;;;;;;;5.93;5.32;;;9.90;99.90;;;;;;5058413;28;20537;-84
2023/04/26 09:05:25;;;;;;;5.82;5.00;;;10.30;99.90;;;;;;5077159;28;20379;-84
2023/04/26 09:07:55;;;;;;;5.43;4.90;;;10.30;99.90;;;;;;5058963;28;20408;-84
2023/04/26 09:10:21;;;;;;;5.95;5.22;;;10.50;99.90;;;;;;5065356;28;20433;-84
2023/04/26 09:12:51;;;;;;;5.60;5.10;;;10.80;99.90;;;;;;5088396;28;20391;-84
2023/04/26 09:15:17;;;;;;;5.38;4.80;;;10.80;99.90;;;;;;5070080;28;20395;-86
2023/04/26 09:17:44;;;;;;;5.40;4.90;;;10.70;99.90;;;;;;5087192;28;20441;-85
2023/04/26 09:20:25;;;;;;;6.28;5.22;;;10.70;99.90;;;;;;5062281;28;20386;-86
2023/04/26 09:23:07;;;;;;;5.60;5.10;;;10.90;99.90;;;;;;5060871;28;20402;-85
2023/04/26 09:25:33;;;;;;;5.17;4.67;;;10.50;99.90;;;;;;5059854;28;20388;-85
2023/04/26 09:28:01;;;;;;;5.15;4.65;;;10.40;99.90;;;;;;5059873;28;20403;-85
2023/04/26 09:30:27;;;;;;;5.30;4.80;;;10.40;99.90;;;;;;5069135;28;20384;-85
2023/04/26 09:32:58;;;;;;;5.90;4.60;;;10.70;99.90;;;;;;5083812;28;20530;-86
2023/04/26 09:35:25;;;;;;;5.80;4.22;;;10.70;99.90;;;;;;5080302;28;20389;-85
2023/04/26 09:37:58;;;;;;;5.40;4.90;;;10.60;99.90;;;;;;5076287;28;20765;-83
2023/04/26 09:40:25;;;;;;;4.93;4.43;;;10.70;99.90;;;;;;5059271;28;20383;-82
2023/04/26 09:43:20;;;;;;;4.82;4.40;;;10.50;99.90;;;;;;5076051;28;20785;-85
2023/04/26 09:45:56;;;;;;;5.25;4.75;;;11.10;99.90;;;;;;5059151;28;20396;-84
2023/04/26 09:48:29;;;;;;;4.80;4.07;;;11.00;99.90;;;;;;5058170;28;20404;-85
2023/04/26 09:51:07;;;;;;;5.25;4.75;;;11.10;99.90;;;;;;5058962;28;20864;-87
2023/04/26 09:53:38;;;;;;;4.30;3.90;;;11.10;99.90;;;;;;5077368;28;20395;-86
2023/04/26 09:56:17;;;;;;;4.90;4.18;;;11.00;96.60;;;;;;5075958;28;20411;-84
2023/04/26 09:58:43;;;;;;;4.50;4.10;;;11.20;96.90;;;;;;5077152;28;20384;-86
2023/04/26 10:01:10;;;;;;;5.73;4.53;;;11.20;99.90;;;;;;5058207;28;20406;-84
2023/04/26 10:03:36;;;;;;;4.37;3.97;;;10.90;99.90;;;;;;5075280;28;20439;-83
2023/04/26 10:06:03;;;;;;;4.70;4.30;;;11.40;99.90;;;;;;5057767;28;20391;-85
2023/04/26 10:08:30;;;;;;;5.00;4.20;;;11.60;92.40;;;;;;5056940;28;20411;-84
2023/04/26 10:10:55;;;;;;;4.63;4.22;;;11.90;99.90;;;;;;5075739;28;20862;-84
2023/04/26 10:13:21;;;;;;;5.30;4.30;;;11.90;94.70;;;;;;5058335;28;20383;-85
2023/04/26 10:15:47;;;;;;;7.20;5.23;;;11.80;86.30;;;;;;5058203;28;20881;-85
2023/04/26 10:18:13;;;;;;;6.10;5.50;;;12.20;86.40;;;;;;5076255;28;20896;-85
2023/04/26 10:20:42;;;;;;;5.40;4.90;;;11.90;87.60;;;;;;5076796;28;20396;-85
2023/04/26 10:23:20;;;;;;;5.10;4.60;;;11.90;94.60;;;;;;5072600;28;20832;-85
2023/04/26 10:25:46;;;;;;;5.10;4.55;;;12.00;81.10;;;;;;5067501;28;20384;-86
2023/04/26 10:28:12;;;;;;;6.00;5.23;;;12.10;75.90;;;;;;5075522;28;20459;-85
2023/04/26 10:30:55;;;;;;;4.90;4.40;;;12.20;60.60;;;;;;5037641;28;20397;-86
2023/04/26 10:33:22;;;;;;;5.07;4.68;;;12.20;81.90;;;;;;5056047;28;20796;-85
2023/04/26 10:36:10;;;;;;;5.00;4.50;;;11.90;55.40;;;;;;5055545;28;20394;-85
2023/04/26 10:38:39;;;;;;;5.63;4.25;;;12.10;57.10;;;;;;5074826;28;20380;-83
2023/04/26 10:41:31;;;;;;;5.00;4.50;;;12.50;53.80;;;;;;5049468;28;20381;-85
2023/04/26 10:43:58;;;;;;;5.72;5.07;;;13.10;46.00;;;;;;5076097;28;20383;-84
2023/04/26 10:46:38;;;;;;;5.45;4.95;;;12.60;42.70;;;;;;5070885;28;20439;-86
2023/04/26 10:49:17;;;;;;;5.18;4.70;;;12.40;46.30;;;;;;5064894;28;20412;-83
2023/04/26 10:52:11;;;;;;;5.15;4.65;;;12.50;51.80;;;;;;5039798;28;20961;-84
2023/04/26 10:54:47;;;;;;;5.28;4.78;;;12.50;48.60;;;;;;5065552;28;20387;-82
2023/04/26 10:57:13;;;;;;;4.88;4.18;;;12.40;74.90;;;;;;5050844;28;20379;-85
2023/04/26 10:59:39;;;;;;;4.35;3.80;;;12.80;49.70;;;;;;5056664;28;20388;-83
2023/04/26 11:02:08;;;;;;;5.30;4.18;;;12.60;36.50;;;;;;5052361;28;20382;-84
2023/04/26 11:04:52;;;;;;;4.40;4.00;;;12.60;36.80;;;;;;5059958;28;20444;-85
2023/04/26 11:07:36;;;;;;;5.37;4.80;;;12.60;25.60;;;;;;5051499;28;20431;-84
2023/04/26 11:10:02;;;;;;;5.32;4.20;;;12.70;35.10;;;;;;5059244;28;20723;-84
2023/04/26 11:12:28;;;;;;;4.43;3.92;;;12.50;45.40;;;;;;5069049;28;20465;-85
2023/04/26 11:14:54;;;;;;;5.40;4.60;;;12.90;34.30;;;;;;5081645;28;20376;-84
2023/04/26 11:17:20;;;;;;;5.28;4.00;;;12.90;27.60;;;;;;5055555;28;20385;-84
2023/04/26 11:19:46;;;;;;;4.90;4.00;;;13.00;35.10;;;;;;5067209;28;20396;-86
2023/04/26 11:22:12;;;;;;;4.40;3.65;;;13.10;28.80;;;;;;5043644;28;20391;-85
2023/04/26 11:24:38;;;;;;;4.50;3.35;;;13.40;24.10;;;;;;5047789;28;20755;-85
2023/04/26 11:27:10;;;;;;;4.50;3.80;;;13.20;19.40;;;;;;5036646;28;20409;-86
2023/04/26 11:29:36;;;;;;;4.80;2.92;;;13.80;18.20;;;;;;5071137;28;20384;-85
2023/04/26 11:32:03;;;;;;;3.10;2.90;;;13.60;14.10;;;;;;5059004;28;20439;-86
2023/04/26 11:34:37;;;;;;;4.10;3.20;;;13.70;11.30;;;;;;5050875;28;20428;-85
2023/04/26 11:37:03;;;;;;;3.75;3.30;;;13.90;11.10;;;;;;5071256;28;20865;-85
2023/04/26 11:39:32;;;;;;;4.28;3.60;;;13.10;13.90;;;;;;5059846;28;20396;-84
2023/04/26 11:42:08;;;;;;;3.60;3.30;;;13.50;10.40;;;;;;5041099;28;20904;-84
2023/04/26 11:44:34;;;;;;;4.60;3.63;;;13.00;12.50;;;;;;5041362;28;20393;-84
2023/04/26 11:47:05;;;;;;;4.03;3.63;;;13.30;14.80;;;;;;5047668;28;20798;-83
2023/04/26 11:49:31;;;;;;;5.57;4.43;;;13.20;15.80;;;;;;5056486;28;20378;-84
2023/04/26 11:51:58;;;;;;;4.23;3.83;;;12.90;17.40;;;;;;5050821;28;20413;-84
2023/04/26 11:54:34;;;;;;;4.50;4.10;;;13.10;17.50;;;;;;5061886;28;20400;-83
2023/04/26 11:57:01;;;;;;;3.53;3.22;;;13.20;20.00;;;;;;5063038;28;20394;-84
2023/04/26 11:59:28;;;;;;;4.30;3.38;;;14.00;18.20;;;;;;5075677;28;20422;-84
2023/04/26 12:02:00;;;;;;;4.43;3.05;;;14.50;9.10;;;;;;5064171;28;20387;-83
2023/04/26 12:04:30;;;;;;;4.03;3.43;;;14.70;9.70;;;;;;5074560;28;20399;-84
2023/04/26 12:06:56;;;;;;;4.25;3.28;;;14.70;7.80;;;;;;5068117;28;20507;-82
2023/04/26 12:09:23;;;;;;;3.60;3.30;;;14.80;5.80;;;;;;5057399;28;20513;-83
2023/04/26 12:11:57;;;;;;;4.72;3.30;;;14.90;7.60;;;;;;5056903;28;20430;-85
2023/04/26 12:14:29;;;;;;;3.72;3.15;;;15.40;9.90;;;;;;5074864;28;20376;-85
2023/04/26 12:16:55;;;;;;;4.00;3.47;;;15.70;3.10;;;;;;5057709;28;20886;-85
2023/04/26 12:19:22;;;;;;;3.60;3.30;;;15.40;7.00;;;;;;5074500;28;20422;-87
2023/04/26 12:21:50;;;;;;;3.50;3.20;;;15.10;2.70;;;;;;5074930;28;20398;-85
2023/04/26 12:24:28;;;;;;;4.85;3.40;;;15.50;2.90;;;;;;5057945;28;20437;-84
2023/04/26 12:26:54;;;;;;;4.53;3.63;;;15.30;2.40;;;;;;5056460;28;20410;-84
2023/04/26 12:29:19;;;;;;;3.20;2.60;;;15.20;1.30;;;;;;5055777;28;20882;-82
2023/04/26 12:31:45;;;;;;;4.18;3.78;;;15.00;3.40;;;;;;5057288;28;20904;-83
2023/04/26 12:34:11;;;;;;;3.30;3.00;;;14.30;3.50;;;;;;5075142;28;20945;-86
2023/04/26 12:36:39;;;;;;;3.75;3.30;;;15.00;4.40;;;;;;5083262;28;20437;-85
2023/04/26 12:39:05;;;;;;;4.05;3.00;;;15.20;1.40;;;;;;5072190;28;20380;-85
2023/04/26 12:41:31;;;;;;;5.15;3.50;;;15.30;2.30;;;;;;5063574;28;20380;-83
2023/04/26 12:43:57;;;;;;;3.80;3.40;;;15.60;1.20;;;;;;5075856;28;20429;-83
2023/04/26 12:46:22;;;;;;;3.33;3.03;;;16.10;1.00;;;;;;5061629;28;20379;-84
2023/04/26 12:48:48;;;;;;;3.67;3.17;;;17.10;1.00;;;;;;5057384;28;20421;-86
2023/04/26 12:51:13;;;;;;;4.63;3.70;;;16.60;1.00;;;;;;5074137;28;20391;-84
2023/04/26 12:53:39;;;;;;;3.40;3.10;;;16.40;1.00;;;;;;5066627;28;20756;-84
2023/04/26 12:56:05;;;;;;;3.43;3.13;;;15.90;1.00;;;;;;5065084;28;20379;-84